»·PEaware :: N61925 KBFL-KMHV

N61925 :: KBFL-KMHV

FLIGHT INFORMATION

Flight Status: Arrived
Operator: Privately registered:
United States
More flights under this callsign
Pilot: Layner W. (45619)
Aircraft: CESSNA 172 SKYHAWK
(C172)
More flights by this aircraft type
Origin: KBFL Meadows
United States
Destination: KMHV Mojave
United States
More flights between these airports :: More routes between these airports
Route: SOUTHEAST
File this flight plan on PilotEdge
Remarks:
Altitude:
(Current/Filed)
7,500ft
Speed:
(Current/Filed)
114kts
Departed: 20-Nov-23 09:36 AM
Arrived: 20-Nov-23 10:15 AM
Distance/Time
Traveled:
50nm/0:39
Distance/Time
To Go:
Arrived

Flight Plot

Page will automatically refresh every two minutes.

Flight plan parsing failed; only flown route is shown


Map Options




Map Legend


Flown Route
Filed Route
Departure Airport
Arrival Airport
Navaid (VOR, NDB)
Fix

Horizontal Profiles

Position Reports

Time Latitude Longitude Heading Altitude Ground
Speed
20-Nov-23 09:21 35.435656 -119.052968 184 481ft 0kts
20-Nov-23 09:22 35.435656 -119.052968 184 481ft 0kts
20-Nov-23 09:23 35.435656 -119.052968 184 481ft 0kts
20-Nov-23 09:24 35.435656 -119.052968 184 481ft 0kts
20-Nov-23 09:25 35.435656 -119.052968 184 490ft 0kts
20-Nov-23 09:26 35.435656 -119.052968 184 490ft 0kts
20-Nov-23 09:27 35.435656 -119.052968 184 490ft 0kts
20-Nov-23 09:28 35.435656 -119.052968 184 490ft 0kts
20-Nov-23 09:29 35.435656 -119.052968 184 490ft 0kts
20-Nov-23 09:30 35.435137 -119.053609 235 489ft 0kts
20-Nov-23 09:31 35.434610 -119.054283 205 485ft 1kts
20-Nov-23 09:32 35.430184 -119.049461 135 482ft 26kts
20-Nov-23 09:33 35.425669 -119.044649 196 471ft 0kts
20-Nov-23 09:34 35.425475 -119.046134 310 475ft 0kts
20-Nov-23 09:35 35.437982 -119.060521 318 879ft 87kts
20-Nov-23 09:36 35.456655 -119.081318 353 1609ft 93kts
20-Nov-23 09:37 35.475043 -119.062812 121 1976ft 97kts
20-Nov-23 09:38 35.453581 -119.035915 137 2019ft 122kts
20-Nov-23 09:39 35.432191 -119.007220 130 2014ft 109kts
20-Nov-23 09:40 35.413558 -118.978749 119 2043ft 106kts
20-Nov-23 09:41 35.399651 -118.949030 121 2536ft 87kts
20-Nov-23 09:42 35.390316 -118.921499 111 3053ft 89kts
20-Nov-23 09:43 35.376606 -118.899926 132 3742ft 72kts
20-Nov-23 09:44 35.368660 -118.878346 110 4273ft 75kts
20-Nov-23 09:45 35.358893 -118.858003 122 4702ft 70kts
20-Nov-23 09:46 35.346961 -118.837401 105 4990ft 82kts
20-Nov-23 09:47 35.340049 -118.813437 102 5403ft 71kts
20-Nov-23 09:48 35.329810 -118.790820 116 5741ft 77kts
20-Nov-23 09:49 35.319617 -118.767896 100 6115ft 76kts
20-Nov-23 09:50 35.313783 -118.743414 112 6479ft 80kts
20-Nov-23 09:51 35.302073 -118.719931 109 6842ft 80kts
20-Nov-23 09:52 35.291870 -118.694813 102 7145ft 85kts
20-Nov-23 09:53 35.279231 -118.667602 121 7386ft 93kts
20-Nov-23 09:54 35.262906 -118.642259 117 7562ft 94kts
20-Nov-23 09:55 35.248450 -118.615404 114 7629ft 94kts
20-Nov-23 09:56 35.239135 -118.588147 120 7666ft 92kts
20-Nov-23 09:57 35.225369 -118.562024 108 7648ft 90kts
20-Nov-23 09:58 35.212230 -118.535748 127 7524ft 95kts
20-Nov-23 09:59 35.190553 -118.517112 135 7359ft 95kts
20-Nov-23 10:00 35.167558 -118.497384 139 6776ft 107kts
20-Nov-23 10:01 35.145440 -118.479071 134 6377ft 90kts
20-Nov-23 10:02 35.129355 -118.458606 104 6210ft 79kts
20-Nov-23 10:03 35.121475 -118.434504 103 6105ft 75kts
20-Nov-23 10:04 35.112167 -118.411247 97 6155ft 73kts
20-Nov-23 10:05 35.106268 -118.391092 97 6170ft 77kts
20-Nov-23 10:06 35.100477 -118.366270 93 6310ft 76kts
20-Nov-23 10:07 35.093836 -118.338534 88 6310ft 93kts
20-Nov-23 10:08 35.093151 -118.307729 71 6080ft 90kts
20-Nov-23 10:09 35.094535 -118.278757 131 5725ft 112kts
20-Nov-23 10:10 35.077141 -118.249196 112 5490ft 100kts
20-Nov-23 10:11 35.061866 -118.219345 116 4347ft 101kts
20-Nov-23 10:13 35.059283 -118.187251 90 3503ft 94kts
20-Nov-23 10:14 35.059191 -118.162719 80 2778ft 44kts
20-Nov-23 10:15 35.058372 -118.157706 187 2766ft 1kts
20-Nov-23 10:16 35.057105 -118.153799 178 2760ft 15kts
20-Nov-23 10:17 35.056404 -118.153643 89 2760ft 0kts
20-Nov-23 10:18 35.056404 -118.153643 89 2760ft 0kts

Navigation Log

Ident Type
Flight plan parsing failed, navigation log unavailable